Terminal Aerodrome Forecast
Issued by NWS Riverton, WY

Home | Current Version | Previous Version | Text Only | Print | Product List | Glossary On
Versions: 1 2 3 4 5 6 7 8 9 10 11 12
179
FTUS45 KRIW 042331
TAFRIW
TAF
KRIW 042331Z 0500/0524 14007KT P6SM FEW110
     FM050400 30008KT P6SM SCT110
     FM052000 15008KT P6SM SCT090 BKN150=

USA.gov is the U.S. government's official web portal to all federal, state and local government web resources and services.